createdAt,value
2023-10-02T00:02:35.531Z,6.13
2023-10-02T00:05:08.321Z,6.40
2023-10-02T00:07:43.604Z,5.20
2023-10-02T00:10:13.373Z,5.67
2023-10-02T00:12:41.509Z,5.53
2023-10-02T00:15:15.562Z,5.72
2023-10-02T00:17:46.620Z,5.65
2023-10-02T00:20:23.577Z,5.90
2023-10-02T00:22:52.213Z,6.07
2023-10-02T00:25:21.309Z,6.70
2023-10-02T00:27:53.804Z,6.45
2023-10-02T00:30:24.754Z,5.82
2023-10-02T00:32:52.730Z,6.50
2023-10-02T00:35:24.050Z,6.07
2023-10-02T00:37:56.459Z,6.30
2023-10-02T00:40:32.366Z,6.65
2023-10-02T00:43:22.806Z,5.75
2023-10-02T00:45:59.739Z,6.65
2023-10-02T00:48:27.204Z,6.73
2023-10-02T00:51:01.111Z,7.13
2023-10-02T00:53:41.221Z,7.13
2023-10-02T00:56:22.590Z,6.05
2023-10-02T00:59:00.776Z,5.80
2023-10-02T01:01:28.824Z,5.83
2023-10-02T01:04:13.362Z,7.05
2023-10-02T01:06:56.547Z,7.63
2023-10-02T01:09:27.319Z,7.30
2023-10-02T01:11:58.946Z,7.80
2023-10-02T01:14:44.762Z,7.07
2023-10-02T01:17:11.721Z,6.20
2023-10-02T01:19:55.034Z,6.28
2023-10-02T01:22:28.028Z,6.03
2023-10-02T01:25:28.208Z,5.78
2023-10-02T01:27:57.984Z,4.90
2023-10-02T01:30:25.634Z,6.20
2023-10-02T01:33:11.010Z,5.65
2023-10-02T01:35:38.237Z,5.57
2023-10-02T01:38:14.420Z,5.57
2023-10-02T01:40:49.803Z,6.20
2023-10-02T01:43:21.618Z,6.47
2023-10-02T01:45:49.883Z,7.55
2023-10-02T01:48:38.448Z,7.55
2023-10-02T01:51:24.432Z,8.48
2023-10-02T01:53:52.600Z,8.47
2023-10-02T01:56:20.195Z,8.13
2023-10-02T01:58:50.214Z,9.25
2023-10-02T02:01:17.648Z,8.80
2023-10-02T02:03:49.906Z,8.60
2023-10-02T02:06:21.890Z,8.40
2023-10-02T02:09:00.628Z,8.85
2023-10-02T02:11:30.997Z,8.70
2023-10-02T02:14:01.168Z,7.88
2023-10-02T02:16:40.238Z,7.93
2023-10-02T02:19:09.476Z,7.33
2023-10-02T02:21:36.909Z,7.38
2023-10-02T02:24:09.960Z,7.32
2023-10-02T02:26:39.311Z,7.55
2023-10-02T02:29:07.049Z,7.45
2023-10-02T02:31:34.785Z,7.17
2023-10-02T02:34:16.101Z,7.32
2023-10-02T02:36:44.274Z,7.07
2023-10-02T02:39:17.329Z,7.35
2023-10-02T02:41:44.805Z,7.57
2023-10-02T02:44:30.919Z,6.97
2023-10-02T02:46:57.908Z,7.43
2023-10-02T02:49:26.483Z,7.70
2023-10-02T02:51:56.875Z,7.53
2023-10-02T02:54:29.441Z,8.15
2023-10-02T02:56:58.042Z,7.40
2023-10-02T02:59:28.179Z,8.07
2023-10-02T03:02:10.461Z,7.60
2023-10-02T03:04:40.951Z,7.72
2023-10-02T03:07:19.781Z,7.65
2023-10-02T03:09:46.828Z,7.83
2023-10-02T03:12:13.803Z,7.18
2023-10-02T03:14:40.685Z,7.63
2023-10-02T03:17:21.572Z,7.80
2023-10-02T03:19:48.614Z,7.70
2023-10-02T03:22:18.386Z,7.30
2023-10-02T03:24:46.845Z,7.25
2023-10-02T03:27:15.714Z,7.63
2023-10-02T03:29:43.958Z,7.13
2023-10-02T03:32:12.766Z,7.70
2023-10-02T03:34:41.716Z,6.77
2023-10-02T03:37:23.213Z,7.22
2023-10-02T03:39:53.936Z,6.63
2023-10-02T03:42:26.448Z,6.40
2023-10-02T03:44:58.051Z,7.10
2023-10-02T03:47:25.952Z,6.70
2023-10-02T03:50:02.190Z,6.82
2023-10-02T03:52:31.866Z,7.32
2023-10-02T03:55:00.752Z,6.82
2023-10-02T03:57:41.629Z,6.65
2023-10-02T04:00:20.651Z,6.47
2023-10-02T04:02:58.715Z,7.07
2023-10-02T04:05:39.925Z,7.22
2023-10-02T04:08:22.198Z,6.82
2023-10-02T04:10:57.521Z,6.53
2023-10-02T04:13:26.649Z,5.90
2023-10-02T04:15:55.119Z,5.95
2023-10-02T04:18:38.864Z,5.78
2023-10-02T04:21:10.920Z,6.10
2023-10-02T04:23:41.622Z,5.97
2023-10-02T04:26:21.095Z,5.97
2023-10-02T04:28:56.898Z,6.38
2023-10-02T04:31:32.238Z,5.90
2023-10-02T04:34:28.264Z,6.15
2023-10-02T04:36:56.227Z,6.53
2023-10-02T04:39:32.346Z,6.43
2023-10-02T04:42:14.432Z,6.60
2023-10-02T04:44:48.878Z,6.70
2023-10-02T04:47:20.305Z,6.93
2023-10-02T04:50:07.464Z,7.40
2023-10-02T04:52:49.698Z,6.43
2023-10-02T04:55:26.408Z,7.05
2023-10-02T04:57:57.455Z,7.13
2023-10-02T05:00:37.702Z,7.22
2023-10-02T05:03:20.034Z,7.18
2023-10-02T05:05:50.441Z,7.27
2023-10-02T05:08:22.823Z,6.72
2023-10-02T05:11:06.804Z,7.35
2023-10-02T05:13:48.466Z,6.97
2023-10-02T05:16:15.564Z,6.97
2023-10-02T05:18:52.712Z,7.00
2023-10-02T05:21:20.417Z,7.40
2023-10-02T05:24:01.684Z,7.78
2023-10-02T05:26:37.777Z,7.43
2023-10-02T05:29:10.490Z,7.47
2023-10-02T05:31:42.453Z,7.60
2023-10-02T05:34:27.588Z,7.70
2023-10-02T05:37:04.717Z,7.10
2023-10-02T05:39:45.655Z,7.80
2023-10-02T05:42:16.669Z,6.80
2023-10-02T05:44:44.475Z,7.40
2023-10-02T05:47:12.602Z,7.25
2023-10-02T05:49:50.612Z,7.40
2023-10-02T05:52:25.452Z,6.93
2023-10-02T05:54:55.817Z,6.60
2023-10-02T05:57:33.357Z,6.90
2023-10-02T06:00:01.955Z,6.55
2023-10-02T06:02:29.439Z,7.20
2023-10-02T06:05:09.191Z,7.30
2023-10-02T06:07:45.644Z,6.88
2023-10-02T06:10:27.140Z,6.37
2023-10-02T06:13:07.136Z,6.70
2023-10-02T06:15:49.683Z,7.25
2023-10-02T06:18:26.537Z,7.25
2023-10-02T06:21:02.806Z,7.20
2023-10-02T06:23:39.900Z,7.23
2023-10-02T06:26:12.406Z,7.28
2023-10-02T06:28:40.186Z,7.38
2023-10-02T06:31:08.063Z,7.43
2023-10-02T06:33:38.880Z,7.32
2023-10-02T06:36:10.164Z,7.20
2023-10-02T06:38:37.547Z,7.47
2023-10-02T06:41:10.876Z,7.50
2023-10-02T06:43:37.856Z,7.78
2023-10-02T06:46:10.650Z,7.80
2023-10-02T06:48:40.852Z,7.80
2023-10-02T06:51:09.025Z,7.45
2023-10-02T06:53:36.090Z,7.20
2023-10-02T06:56:08.486Z,8.25
2023-10-02T06:58:50.800Z,7.85
2023-10-02T07:01:21.344Z,7.13
2023-10-02T07:03:58.172Z,7.18
2023-10-02T07:06:26.016Z,7.28
2023-10-02T07:09:07.764Z,7.45
2023-10-02T07:11:36.465Z,6.65
2023-10-02T07:14:05.457Z,6.97
2023-10-02T07:16:33.954Z,6.55
2023-10-02T07:19:01.430Z,6.75
2023-10-02T07:21:32.421Z,5.60
2023-10-02T07:24:02.634Z,6.63
2023-10-02T07:26:43.606Z,6.23
2023-10-02T07:29:10.570Z,6.07
2023-10-02T07:31:37.683Z,5.70
2023-10-02T07:34:09.437Z,6.13
2023-10-02T07:36:46.075Z,5.25
2023-10-02T07:39:42.548Z,5.43
2023-10-02T07:42:11.901Z,6.07
2023-10-02T07:44:40.503Z,5.55
2023-10-02T07:47:12.454Z,5.15
2023-10-02T07:49:45.410Z,5.53
2023-10-02T07:52:13.468Z,5.80
2023-10-02T07:54:46.072Z,5.43
2023-10-02T07:57:14.515Z,5.38
2023-10-02T07:59:45.299Z,5.40
2023-10-02T08:02:26.337Z,5.93
2023-10-02T08:04:53.547Z,5.47
2023-10-02T08:07:39.810Z,5.35
2023-10-02T08:10:08.202Z,4.75
2023-10-02T08:12:36.480Z,5.07
2023-10-02T08:15:06.468Z,5.05
2023-10-02T08:17:33.487Z,4.80
2023-10-02T08:20:17.368Z,4.78
2023-10-02T08:22:48.153Z,4.75
2023-10-02T08:25:16.189Z,4.07
2023-10-02T08:27:59.208Z,4.10
2023-10-02T08:30:33.594Z,4.17
2023-10-02T08:33:08.908Z,4.20
2023-10-02T08:35:53.136Z,3.85
2023-10-02T08:38:27.618Z,3.58
2023-10-02T08:41:04.692Z,3.72
2023-10-02T08:43:46.184Z,3.40
2023-10-02T08:46:23.770Z,3.22
2023-10-02T08:48:57.244Z,2.85
2023-10-02T08:51:30.905Z,2.72
2023-10-02T08:53:59.365Z,2.53
2023-10-02T08:56:38.922Z,2.40
2023-10-02T08:59:29.787Z,2.88
2023-10-02T09:02:08.785Z,3.50
2023-10-02T09:04:35.794Z,4.28
2023-10-02T09:07:16.648Z,9.30
2023-10-02T09:09:46.940Z,9.40
2023-10-02T09:12:16.398Z,14.02
2023-10-02T09:14:43.747Z,15.90
2023-10-02T09:17:15.209Z,17.35
2023-10-02T09:19:54.924Z,13.75
2023-10-02T09:22:24.510Z,14.20
2023-10-02T09:25:10.870Z,9.43
2023-10-02T09:27:42.836Z,3.60
2023-10-02T09:30:16.904Z,5.18
2023-10-02T09:32:57.741Z,12.32
2023-10-02T09:35:56.805Z,10.80
2023-10-02T09:38:34.020Z,9.13
2023-10-02T09:41:07.380Z,14.13
2023-10-02T09:43:37.045Z,21.10
2023-10-02T09:46:08.330Z,19.20
2023-10-02T09:49:11.266Z,14.57
2023-10-02T09:52:08.661Z,7.75
2023-10-02T09:54:39.582Z,22.20
2023-10-02T09:57:18.250Z,21.33
2023-10-02T09:59:48.586Z,19.63
2023-10-02T10:02:22.521Z,13.70
2023-10-02T10:05:23.819Z,12.27
2023-10-02T10:07:56.303Z,16.33
2023-10-02T10:10:54.008Z,11.55
2023-10-02T10:13:34.006Z,7.90
2023-10-02T10:16:21.243Z,5.33
2023-10-02T10:19:11.263Z,8.85
2023-10-02T10:21:57.915Z,9.30
2023-10-02T10:24:53.199Z,5.88
2023-10-02T10:27:44.522Z,6.82
2023-10-02T10:30:51.667Z,5.70
2023-10-02T10:33:18.742Z,5.25
2023-10-02T10:35:59.771Z,4.50
2023-10-02T10:38:29.579Z,4.20
2023-10-02T10:41:02.341Z,4.85
2023-10-02T10:43:43.818Z,4.30
2023-10-02T10:46:23.324Z,9.88
2023-10-02T10:49:10.106Z,8.70
2023-10-02T10:51:39.326Z,7.40
2023-10-02T10:54:38.037Z,7.13
2023-10-02T10:57:26.937Z,6.60
2023-10-02T11:00:22.283Z,6.25
2023-10-02T11:02:55.494Z,6.93
2023-10-02T11:05:23.976Z,7.53
2023-10-02T11:07:52.280Z,6.85
2023-10-02T11:10:25.176Z,10.00
2023-10-02T11:12:58.808Z,10.63
2023-10-02T11:15:42.062Z,9.77
2023-10-02T11:18:24.841Z,8.48
2023-10-02T11:21:01.606Z,6.88
2023-10-02T11:23:46.785Z,8.97
2023-10-02T11:26:15.165Z,8.00
2023-10-02T11:28:51.539Z,7.50
2023-10-02T11:31:32.179Z,6.18
2023-10-02T11:34:30.122Z,9.05
2023-10-02T11:36:56.877Z,8.20
2023-10-02T11:39:29.188Z,6.93
2023-10-02T11:41:56.656Z,7.13
2023-10-02T11:44:23.948Z,7.78
2023-10-02T11:46:51.106Z,11.15
2023-10-02T11:49:18.105Z,21.70
2023-10-02T11:51:46.842Z,22.45
2023-10-02T11:54:15.536Z,15.77
2023-10-02T11:56:44.752Z,21.20
2023-10-02T11:59:16.148Z,16.75
2023-10-02T12:01:46.593Z,9.60
2023-10-02T12:04:14.246Z,12.70
2023-10-02T12:06:42.144Z,13.77
2023-10-02T12:09:09.313Z,13.63
2023-10-02T12:11:36.371Z,9.27
2023-10-02T12:14:06.310Z,7.33
2023-10-02T12:16:33.381Z,10.18
2023-10-02T12:19:00.586Z,9.57
2023-10-02T12:21:29.659Z,8.98
2023-10-02T12:24:00.221Z,9.60
2023-10-02T12:26:28.919Z,8.93
2023-10-02T12:28:56.697Z,8.75
2023-10-02T12:31:24.765Z,8.40
2023-10-02T12:33:54.814Z,7.95
2023-10-02T12:36:27.499Z,10.15
2023-10-02T12:38:54.724Z,31.53
2023-10-02T12:41:22.840Z,28.58
2023-10-02T12:43:57.542Z,21.55
2023-10-02T12:46:29.099Z,17.73
2023-10-02T12:48:58.728Z,11.77
2023-10-02T12:51:26.506Z,12.17
2023-10-02T12:53:53.599Z,9.60
2023-10-02T12:56:23.237Z,9.40
2023-10-02T12:58:52.145Z,8.50
2023-10-02T13:01:28.743Z,9.20
2023-10-02T13:03:56.130Z,8.90
2023-10-02T13:06:24.324Z,8.68
2023-10-02T13:08:51.259Z,8.57
2023-10-02T13:11:21.466Z,10.18
2023-10-02T13:13:48.901Z,10.65
2023-10-02T13:16:20.053Z,9.53
2023-10-02T13:18:47.217Z,10.20
2023-10-02T13:21:18.900Z,8.90
2023-10-02T13:23:46.184Z,8.55
2023-10-02T13:26:16.448Z,12.07
2023-10-02T13:28:49.465Z,13.37
2023-10-02T13:31:18.471Z,12.32
2023-10-02T13:33:48.907Z,11.73
2023-10-02T13:36:15.869Z,9.63
2023-10-02T13:38:42.759Z,10.23
2023-10-02T13:41:13.113Z,15.77
2023-10-02T13:43:42.528Z,16.38
2023-10-02T13:46:11.096Z,15.48
2023-10-02T13:48:39.376Z,14.98
2023-10-02T13:51:09.429Z,12.70
2023-10-02T13:53:36.961Z,9.47
2023-10-02T13:56:10.503Z,8.40
2023-10-02T13:58:41.421Z,7.63
2023-10-02T14:01:09.011Z,7.40
2023-10-02T14:03:36.417Z,7.68
2023-10-02T14:06:07.784Z,32.27
2023-10-02T14:08:37.672Z,16.90
2023-10-02T14:11:04.755Z,8.65
2023-10-02T14:13:32.828Z,7.45
2023-10-02T14:16:10.458Z,12.27
2023-10-02T14:18:38.965Z,10.20
2023-10-02T14:21:07.418Z,8.73
2023-10-02T14:23:35.482Z,7.72
2023-10-02T14:26:03.269Z,6.97
2023-10-02T14:28:30.448Z,7.75
2023-10-02T14:30:57.476Z,6.93
2023-10-02T14:33:25.241Z,7.65
2023-10-02T14:35:59.087Z,6.82
2023-10-02T14:38:26.279Z,14.32
2023-10-02T14:40:57.690Z,10.73
2023-10-02T14:43:24.747Z,7.33
2023-10-02T14:45:54.031Z,26.60
2023-10-02T14:50:52.921Z,7.88
2023-10-02T14:53:20.191Z,7.50
2023-10-02T14:55:47.584Z,7.73
2023-10-02T14:58:14.510Z,7.18
2023-10-02T15:00:41.662Z,6.80
2023-10-02T15:03:08.803Z,6.25
2023-10-02T15:05:38.684Z,6.65
2023-10-02T15:08:08.290Z,6.70
2023-10-02T15:10:36.897Z,6.22
2023-10-02T15:13:03.936Z,6.15
2023-10-02T15:15:30.852Z,5.70
2023-10-02T15:18:01.460Z,6.00
2023-10-02T15:20:29.250Z,6.27
2023-10-02T15:22:57.320Z,7.18
2023-10-02T15:25:24.919Z,6.25
2023-10-02T15:27:53.338Z,6.13
2023-10-02T15:30:21.443Z,5.80
2023-10-02T15:32:49.287Z,6.27
2023-10-02T15:35:17.527Z,6.63
2023-10-02T15:37:49.960Z,5.90
2023-10-02T15:40:21.757Z,6.32
2023-10-02T15:42:53.366Z,6.88
2023-10-02T15:45:21.229Z,6.50
2023-10-02T15:47:49.087Z,6.72
2023-10-02T15:50:20.496Z,5.88
2023-10-02T15:52:50.141Z,5.57
2023-10-02T15:55:20.440Z,7.93
2023-10-02T15:57:49.404Z,7.40
2023-10-02T16:00:25.958Z,7.70
2023-10-02T16:03:02.592Z,8.75
2023-10-02T16:05:30.847Z,7.95
2023-10-02T16:07:58.097Z,8.55
2023-10-02T16:10:26.015Z,8.17
2023-10-02T16:12:53.525Z,8.13
2023-10-02T16:15:25.973Z,8.95
2023-10-02T16:17:55.132Z,7.93
2023-10-02T16:20:24.054Z,8.00
2023-10-02T16:22:51.985Z,8.70
2023-10-02T16:25:20.693Z,7.68
2023-10-02T16:27:52.638Z,7.63
2023-10-02T16:30:20.922Z,8.05
2023-10-02T16:32:49.911Z,7.60
2023-10-02T16:35:17.761Z,7.47
2023-10-02T16:37:45.023Z,8.15
2023-10-02T16:40:13.298Z,7.53
2023-10-02T16:42:40.959Z,7.30
2023-10-02T16:45:12.522Z,7.43
2023-10-02T16:47:42.604Z,7.20
2023-10-02T16:50:16.872Z,7.85
2023-10-02T16:52:45.885Z,7.55
2023-10-02T16:55:17.277Z,7.72
2023-10-02T16:57:46.196Z,7.40
2023-10-02T17:00:14.175Z,7.37
2023-10-02T17:02:42.241Z,7.63
2023-10-02T17:05:13.371Z,7.28
2023-10-02T17:07:44.327Z,7.63
2023-10-02T17:10:22.574Z,7.35
2023-10-02T17:12:56.126Z,7.47
2023-10-02T17:15:23.394Z,7.80
2023-10-02T17:17:50.908Z,7.72
2023-10-02T17:20:19.799Z,7.38
2023-10-02T17:22:47.544Z,7.53
2023-10-02T17:25:18.827Z,7.67
2023-10-02T17:27:45.886Z,8.20
2023-10-02T17:30:15.358Z,7.57
2023-10-02T17:32:43.489Z,7.60
2023-10-02T17:35:14.787Z,8.00
2023-10-02T17:37:41.907Z,8.00
2023-10-02T17:40:12.384Z,7.88
2023-10-02T17:42:42.590Z,7.70
2023-10-02T17:45:10.144Z,8.07
2023-10-02T17:47:38.316Z,8.13
2023-10-02T17:50:07.062Z,7.23
2023-10-02T17:52:34.213Z,7.72
2023-10-02T17:55:01.225Z,8.45
2023-10-02T17:57:28.187Z,8.20
2023-10-02T17:59:55.617Z,8.68
2023-10-02T18:02:22.637Z,8.27
2023-10-02T18:04:54.722Z,9.07
2023-10-02T18:07:24.631Z,9.48
2023-10-02T18:09:51.733Z,10.18
2023-10-02T18:12:19.258Z,9.48
2023-10-02T18:14:47.271Z,10.10
2023-10-02T18:17:15.239Z,10.27
2023-10-02T18:19:42.351Z,11.35
2023-10-02T18:22:12.452Z,11.63
2023-10-02T18:24:40.894Z,14.25
2023-10-02T18:27:07.816Z,13.90
2023-10-02T18:29:34.967Z,13.75
2023-10-02T18:32:02.596Z,10.38
2023-10-02T18:34:42.899Z,9.38
2023-10-02T18:37:14.303Z,8.77
2023-10-02T18:39:41.384Z,7.27
2023-10-02T18:42:09.229Z,7.38
2023-10-02T18:44:37.184Z,8.18
2023-10-02T18:47:08.332Z,7.53
2023-10-02T18:49:36.901Z,7.65
2023-10-02T18:52:05.222Z,6.67
2023-10-02T18:54:32.861Z,7.10
2023-10-02T18:57:00.496Z,7.22
2023-10-02T18:59:27.837Z,7.32
2023-10-02T19:01:54.823Z,7.45
2023-10-02T19:04:22.769Z,7.23
2023-10-02T19:06:49.815Z,7.50
2023-10-02T19:09:19.071Z,7.45
2023-10-02T19:11:49.276Z,7.75
2023-10-02T19:14:17.045Z,7.57
2023-10-02T19:16:44.172Z,7.37
2023-10-02T19:19:11.271Z,7.18
2023-10-02T19:21:38.405Z,6.90
2023-10-02T19:24:05.738Z,7.05
2023-10-02T19:26:33.814Z,7.78
2023-10-02T19:29:04.268Z,7.60
2023-10-02T19:31:31.705Z,7.57
2023-10-02T19:33:59.189Z,6.95
2023-10-02T19:36:26.412Z,6.88
2023-10-02T19:38:53.513Z,7.13
2023-10-02T19:41:21.336Z,8.07
2023-10-02T19:43:54.027Z,6.80
2023-10-02T19:46:21.639Z,7.03
2023-10-02T19:48:49.629Z,7.53
2023-10-02T19:51:16.703Z,7.38
2023-10-02T19:53:44.646Z,7.20
2023-10-02T19:56:13.520Z,6.75
2023-10-02T19:58:40.693Z,7.25
2023-10-02T20:01:07.655Z,7.70
2023-10-02T20:03:37.494Z,7.47
2023-10-02T20:06:11.925Z,6.90
2023-10-02T20:08:39.482Z,7.38
2023-10-02T20:11:06.904Z,7.00
2023-10-02T20:13:34.632Z,7.18
2023-10-02T20:16:01.700Z,7.50
2023-10-02T20:18:30.350Z,7.47
2023-10-02T20:20:58.817Z,7.32
2023-10-02T20:23:37.160Z,7.70
2023-10-02T20:26:12.179Z,8.05
2023-10-02T20:28:39.490Z,7.95
2023-10-02T20:31:12.681Z,7.70
2023-10-02T20:33:40.594Z,7.15
2023-10-02T20:36:08.042Z,7.60
2023-10-02T20:38:37.772Z,7.68
2023-10-02T20:41:04.877Z,7.97
2023-10-02T20:43:32.907Z,7.47
2023-10-02T20:45:59.916Z,8.02
2023-10-02T20:48:26.904Z,7.35
2023-10-02T20:50:55.963Z,7.90
2023-10-02T20:53:23.465Z,7.57
2023-10-02T20:55:54.534Z,7.53
2023-10-02T20:58:21.440Z,7.45
2023-10-02T21:00:48.697Z,7.80
2023-10-02T21:03:17.040Z,7.63
2023-10-02T21:05:44.981Z,7.15
2023-10-02T21:08:14.364Z,7.33
2023-10-02T21:10:41.613Z,7.22
2023-10-02T21:13:09.449Z,7.80
2023-10-02T21:15:36.687Z,7.32
2023-10-02T21:18:06.103Z,7.43
2023-10-02T21:20:33.341Z,7.60
2023-10-02T21:23:00.462Z,8.50
2023-10-02T21:25:27.390Z,8.20
2023-10-02T21:27:54.434Z,7.80
2023-10-02T21:30:22.697Z,7.70
2023-10-02T21:32:49.767Z,7.67
2023-10-02T21:35:17.463Z,7.80
2023-10-02T21:37:44.545Z,7.60
2023-10-02T21:40:15.297Z,7.22
2023-10-02T21:42:42.473Z,7.55
2023-10-02T21:45:11.363Z,7.67
2023-10-02T21:47:38.809Z,7.38
2023-10-02T21:50:07.252Z,6.88
2023-10-02T21:52:40.825Z,6.90
2023-10-02T21:55:10.943Z,7.47
2023-10-02T21:57:38.181Z,7.77
2023-10-02T22:00:31.447Z,6.72
2023-10-02T22:02:58.683Z,7.85
2023-10-02T22:05:28.692Z,7.35
2023-10-02T22:07:56.925Z,7.28
2023-10-02T22:10:25.617Z,7.20
2023-10-02T22:12:53.741Z,7.82
2023-10-02T22:15:23.001Z,7.72
2023-10-02T22:17:52.392Z,7.57
2023-10-02T22:20:19.986Z,7.65
2023-10-02T22:22:47.320Z,7.33
2023-10-02T22:25:19.328Z,7.45
2023-10-02T22:27:46.346Z,7.45
2023-10-02T22:30:16.377Z,7.80
2023-10-02T22:32:44.189Z,7.05
2023-10-02T22:35:12.620Z,7.37
2023-10-02T22:37:40.384Z,7.25
2023-10-02T22:40:20.992Z,7.55
2023-10-02T22:42:54.221Z,7.72
2023-10-02T22:45:24.789Z,7.78
2023-10-02T22:47:52.641Z,7.53
2023-10-02T22:50:19.710Z,7.05
2023-10-02T22:52:47.156Z,7.30
2023-10-02T22:55:14.294Z,7.13
2023-10-02T22:57:41.586Z,7.78
2023-10-02T23:00:17.219Z,7.43
2023-10-02T23:02:52.539Z,7.60
2023-10-02T23:05:19.966Z,8.10
2023-10-02T23:07:47.040Z,7.18
2023-10-02T23:10:16.900Z,8.00
2023-10-02T23:12:48.058Z,6.90
2023-10-02T23:15:16.364Z,6.97
2023-10-02T23:17:44.760Z,7.10
2023-10-02T23:20:15.644Z,7.47
2023-10-02T23:22:46.228Z,7.60
2023-10-02T23:25:28.180Z,7.50
2023-10-02T23:27:55.296Z,7.82
2023-10-02T23:30:22.539Z,8.20
2023-10-02T23:32:56.471Z,7.90
2023-10-02T23:35:25.119Z,8.50
2023-10-02T23:37:58.651Z,8.20
2023-10-02T23:40:26.020Z,8.45
2023-10-02T23:43:00.354Z,8.70
2023-10-02T23:45:28.808Z,8.65
2023-10-02T23:48:02.040Z,9.13
2023-10-02T23:50:33.573Z,8.97
2023-10-02T23:53:03.329Z,8.65
2023-10-02T23:55:30.266Z,9.23
2023-10-02T23:57:57.240Z,7.93
